createdAt,value
2023-05-17T00:00:54.741Z,99778.70
2023-05-17T00:01:57.275Z,99784.88
2023-05-17T00:02:59.687Z,99774.39
2023-05-17T00:04:02.827Z,99778.89
2023-05-17T00:05:06.014Z,99778.70
2023-05-17T00:06:09.670Z,99777.84
2023-05-17T00:07:12.158Z,99772.81
2023-05-17T00:08:14.982Z,99784.13
2023-05-17T00:09:17.367Z,99783.95
2023-05-17T00:10:19.980Z,99790.23
2023-05-17T00:11:23.441Z,99782.38
2023-05-17T00:12:25.936Z,99786.45
2023-05-17T00:13:28.524Z,99785.41
2023-05-17T00:14:31.125Z,99786.34
2023-05-17T00:15:34.421Z,99783.95
2023-05-17T00:16:37.481Z,99785.82
2023-05-17T00:17:40.169Z,99784.66
2023-05-17T00:18:42.909Z,99790.88
2023-05-17T00:19:45.735Z,99779.64
2023-05-17T00:20:48.393Z,99790.88
2023-05-17T00:21:50.792Z,99784.13
2023-05-17T00:22:53.269Z,99789.60
2023-05-17T00:23:55.808Z,99795.56
2023-05-17T00:24:58.410Z,99793.05
2023-05-17T00:26:01.175Z,99794.92
2023-05-17T00:27:04.353Z,99792.52
2023-05-17T00:28:06.788Z,99791.77
2023-05-17T00:29:09.930Z,99793.01
2023-05-17T00:30:14.045Z,99797.31
2023-05-17T00:31:16.673Z,99792.93
2023-05-17T00:32:19.896Z,99787.77
2023-05-17T00:33:22.273Z,99795.84
2023-05-17T00:34:24.656Z,99790.61
2023-05-17T00:35:28.508Z,99798.47
2023-05-17T00:36:31.269Z,99795.84
2023-05-17T00:37:33.917Z,99786.05
2023-05-17T00:38:36.792Z,99786.05
2023-05-17T00:39:39.330Z,99796.03
2023-05-17T00:40:42.337Z,99785.89
2023-05-17T00:41:44.884Z,99785.89
2023-05-17T00:42:47.552Z,99790.61
2023-05-17T00:43:51.386Z,99790.61
2023-05-17T00:44:53.936Z,99794.98
2023-05-17T00:45:56.505Z,99794.98
2023-05-17T00:47:01.040Z,99794.98
2023-05-17T00:48:04.459Z,99797.42
2023-05-17T00:49:07.156Z,99792.93
2023-05-17T00:50:11.400Z,99799.22
2023-05-17T00:51:15.969Z,99802.56
2023-05-17T00:52:19.295Z,99799.22
2023-05-17T00:53:22.565Z,99800.88
2023-05-17T00:54:26.086Z,99794.80
2023-05-17T00:55:29.402Z,99795.63
2023-05-17T00:56:33.042Z,99799.86
2023-05-17T00:57:37.192Z,99793.65
2023-05-17T00:58:40.346Z,99797.95
2023-05-17T00:59:44.491Z,99802.37
2023-05-17T01:00:47.186Z,99797.13
2023-05-17T01:01:51.072Z,99798.06
2023-05-17T01:02:53.610Z,99797.31
2023-05-17T01:03:57.201Z,99800.88
2023-05-17T01:05:00.392Z,99799.11
2023-05-17T01:06:05.973Z,99796.48
2023-05-17T01:07:10.493Z,99797.53
2023-05-17T01:08:13.752Z,99802.56
2023-05-17T01:09:16.968Z,99800.88
2023-05-17T01:10:19.823Z,99804.25
2023-05-17T01:11:44.170Z,99801.33
2023-05-17T01:12:50.710Z,99803.13
2023-05-17T01:13:56.721Z,99792.41
2023-05-17T01:15:12.277Z,99795.78
2023-05-17T01:16:40.334Z,99797.36
2023-05-17T01:18:04.978Z,99793.16
2023-05-17T01:19:23.172Z,99802.61
2023-05-17T01:20:38.246Z,99805.34
2023-05-17T01:21:50.490Z,99801.97
2023-05-17T01:23:21.972Z,99808.03
2023-05-17T01:24:30.736Z,99803.65
2023-05-17T01:25:57.848Z,99806.05
2023-05-17T01:27:02.338Z,99806.99
2023-05-17T01:28:07.613Z,99803.44
2023-05-17T01:29:12.748Z,99802.38
2023-05-17T01:30:17.835Z,99799.69
2023-05-17T01:31:21.690Z,99801.56
2023-05-17T01:32:25.393Z,99805.12
2023-05-17T01:33:29.445Z,99804.07
2023-05-17T01:34:32.148Z,99807.33
2023-05-17T01:35:34.637Z,99804.93
2023-05-17T01:36:37.224Z,99807.55
2023-05-17T01:37:39.707Z,99807.73
2023-05-17T01:38:42.182Z,99803.44
2023-05-17T01:39:44.654Z,99808.38
2023-05-17T01:40:56.582Z,99806.61
2023-05-17T01:42:08.803Z,99811.86
2023-05-17T01:43:44.187Z,99811.86
2023-05-17T01:44:50.292Z,99815.20
2023-05-17T01:46:15.151Z,99806.39
2023-05-17T01:47:47.375Z,99817.83
2023-05-17T01:50:07.003Z,99811.27
2023-05-17T01:51:12.978Z,99809.31
2023-05-17T01:52:31.240Z,99809.02
2023-05-17T01:53:39.237Z,99813.17
2023-05-17T01:54:48.772Z,99807.92
2023-05-17T01:55:55.621Z,99804.33
2023-05-17T01:57:01.575Z,99806.02
2023-05-17T01:58:07.025Z,99800.05
2023-05-17T01:59:12.805Z,99805.83
2023-05-17T02:00:17.313Z,99805.83
2023-05-17T02:01:22.540Z,99803.92
2023-05-17T02:02:25.358Z,99804.03
2023-05-17T02:03:29.006Z,99804.89
2023-05-17T02:04:31.893Z,99803.92
2023-05-17T02:05:36.193Z,99807.51
2023-05-17T02:06:38.765Z,99809.91
2023-05-17T02:07:41.324Z,99803.73
2023-05-17T02:08:43.735Z,99805.41
2023-05-17T02:09:46.504Z,99800.36
2023-05-17T02:10:50.297Z,99802.04
2023-05-17T02:11:53.622Z,99805.52
2023-05-17T02:12:55.923Z,99807.28
2023-05-17T02:13:58.331Z,99808.97
2023-05-17T02:15:01.248Z,99805.60
2023-05-17T02:16:04.067Z,99808.03
2023-05-17T02:17:08.180Z,99806.98
2023-05-17T02:18:11.341Z,99809.50
2023-05-17T02:19:16.026Z,99814.22
2023-05-17T02:20:20.507Z,99803.73
2023-05-17T02:21:22.846Z,99805.60
2023-05-17T02:22:25.207Z,99812.53
2023-05-17T02:23:28.720Z,99809.72
2023-05-17T02:24:31.667Z,99808.23
2023-05-17T02:25:34.984Z,99808.23
2023-05-17T02:26:37.765Z,99813.17
2023-05-17T02:27:40.344Z,99813.80
2023-05-17T02:28:43.765Z,99812.13
2023-05-17T02:29:46.247Z,99817.48
2023-05-17T02:30:48.913Z,99814.97
2023-05-17T02:31:51.379Z,99816.66
2023-05-17T02:32:56.269Z,99814.11
2023-05-17T02:33:58.943Z,99812.23
2023-05-17T02:35:01.412Z,99815.91
2023-05-17T02:36:04.793Z,99816.55
2023-05-17T02:37:08.457Z,99817.29
2023-05-17T02:38:12.406Z,99811.93
2023-05-17T02:39:16.837Z,99817.17
2023-05-17T02:40:19.250Z,99820.52
2023-05-17T02:41:21.610Z,99816.95
2023-05-17T02:42:24.456Z,99819.69
2023-05-17T02:43:27.001Z,99825.77
2023-05-17T02:44:30.411Z,99814.25
2023-05-17T02:45:33.030Z,99820.52
2023-05-17T02:46:38.210Z,99824.75
2023-05-17T02:47:40.614Z,99819.39
2023-05-17T02:48:43.209Z,99823.70
2023-05-17T02:49:45.602Z,99825.37
2023-05-17T02:50:48.087Z,99821.78
2023-05-17T02:51:50.559Z,99829.47
2023-05-17T02:52:53.649Z,99820.77
2023-05-17T02:53:56.122Z,99819.91
2023-05-17T02:54:58.803Z,99828.53
2023-05-17T02:56:01.517Z,99824.97
2023-05-17T02:57:05.223Z,99828.42
2023-05-17T02:58:07.762Z,99817.92
2023-05-17T02:59:11.391Z,99817.92
2023-05-17T03:00:16.213Z,99829.36
2023-05-17T03:01:18.801Z,99825.58
2023-05-17T03:02:21.408Z,99828.72
2023-05-17T03:03:24.671Z,99828.72
2023-05-17T03:04:27.143Z,99832.09
2023-05-17T03:05:31.681Z,99838.09
2023-05-17T03:06:34.620Z,99830.22
2023-05-17T03:07:37.777Z,99836.17
2023-05-17T03:08:40.433Z,99831.04
2023-05-17T03:09:44.091Z,99830.93
2023-05-17T03:10:48.366Z,99839.03
2023-05-17T03:11:51.255Z,99836.52
2023-05-17T03:12:56.605Z,99837.76
2023-05-17T03:14:01.030Z,99834.38
2023-05-17T03:15:06.287Z,99840.38
2023-05-17T03:16:10.183Z,99838.39
2023-05-17T03:17:13.758Z,99839.03
2023-05-17T03:18:16.766Z,99838.17
2023-05-17T03:19:20.002Z,99835.66
2023-05-17T03:20:24.195Z,99837.15
2023-05-17T03:21:26.707Z,99844.91
2023-05-17T03:22:29.281Z,99850.27
2023-05-17T03:23:34.942Z,99840.71
2023-05-17T03:24:38.407Z,99848.78
2023-05-17T03:25:41.085Z,99839.86
2023-05-17T03:26:45.772Z,99847.65
2023-05-17T03:27:48.855Z,99849.30
2023-05-17T03:28:51.296Z,99852.56
2023-05-17T03:29:55.270Z,99841.98
2023-05-17T03:30:59.629Z,99853.20
2023-05-17T03:32:04.828Z,99848.69
2023-05-17T03:33:07.574Z,99855.63
2023-05-17T03:34:11.551Z,99852.06
2023-05-17T03:35:14.319Z,99849.21
2023-05-17T03:36:19.758Z,99853.52
2023-05-17T03:37:22.778Z,99853.33
2023-05-17T03:38:26.070Z,99861.09
2023-05-17T03:39:28.807Z,99854.78
2023-05-17T03:40:31.440Z,99858.58
2023-05-17T03:41:34.776Z,99858.47
2023-05-17T03:42:38.541Z,99860.04
2023-05-17T03:43:42.442Z,99860.04
2023-05-17T03:44:46.855Z,99870.34
2023-05-17T03:45:49.388Z,99871.06
2023-05-17T03:46:53.253Z,99861.84
2023-05-17T03:47:56.904Z,99872.23
2023-05-17T03:49:00.827Z,99866.54
2023-05-17T03:50:05.962Z,99871.37
2023-05-17T03:51:09.745Z,99870.44
2023-05-17T03:52:12.180Z,99871.79
2023-05-17T03:53:14.989Z,99871.59
2023-05-17T03:54:18.277Z,99874.97
2023-05-17T03:55:21.226Z,99873.05
2023-05-17T03:56:25.427Z,99872.42
2023-05-17T03:57:28.466Z,99875.80
2023-05-17T03:58:31.803Z,99868.35
2023-05-17T03:59:34.200Z,99871.81
2023-05-17T04:00:37.414Z,99870.87
2023-05-17T04:01:43.243Z,99869.92
2023-05-17T04:02:46.105Z,99876.64
2023-05-17T04:03:49.590Z,99871.50
2023-05-17T04:04:52.631Z,99876.86
2023-05-17T04:06:05.537Z,99874.75
2023-05-17T04:07:09.987Z,99880.75
2023-05-17T04:08:12.669Z,99879.27
2023-05-17T04:09:14.962Z,99886.95
2023-05-17T04:10:18.613Z,99883.77
2023-05-17T04:11:23.219Z,99881.06
2023-05-17T04:12:26.091Z,99887.58
2023-05-17T04:13:29.028Z,99881.69
2023-05-17T04:14:31.336Z,99886.72
2023-05-17T04:15:34.366Z,99888.20
2023-05-17T04:16:37.878Z,99887.78
2023-05-17T04:17:40.885Z,99889.05
2023-05-17T04:18:45.158Z,99888.81
2023-05-17T04:19:48.230Z,99884.07
2023-05-17T04:20:51.878Z,99890.50
2023-05-17T04:21:54.802Z,99889.75
2023-05-17T04:22:58.568Z,99886.93
2023-05-17T04:24:01.943Z,99890.73
2023-05-17T04:25:05.003Z,99893.01
2023-05-17T04:26:09.480Z,99896.19
2023-05-17T04:27:13.969Z,99890.06
2023-05-17T04:28:17.007Z,99894.50
2023-05-17T04:29:20.765Z,99889.33
2023-05-17T04:30:23.589Z,99893.55
2023-05-17T04:31:26.157Z,99894.72
2023-05-17T04:32:28.976Z,99892.84
2023-05-17T04:33:31.972Z,99896.18
2023-05-17T04:34:34.627Z,99891.59
2023-05-17T04:35:38.778Z,99891.59
2023-05-17T04:36:41.937Z,99901.23
2023-05-17T04:37:45.179Z,99898.30
2023-05-17T04:38:49.776Z,99897.23
2023-05-17T04:39:54.333Z,99892.72
2023-05-17T04:41:07.539Z,99898.61
2023-05-17T04:42:11.972Z,99901.23
2023-05-17T04:43:16.293Z,99898.05
2023-05-17T04:44:18.773Z,99902.48
2023-05-17T04:45:21.772Z,99893.30
2023-05-17T04:46:27.214Z,99899.09
2023-05-17T04:47:30.184Z,99899.09
2023-05-17T04:48:33.168Z,99898.66
2023-05-17T04:49:36.792Z,99909.27
2023-05-17T04:50:39.317Z,99899.81
2023-05-17T04:51:41.788Z,99902.00
2023-05-17T04:52:47.018Z,99902.00
2023-05-17T04:53:49.794Z,99898.84
2023-05-17T04:54:53.600Z,99900.91
2023-05-17T04:55:57.125Z,99913.23
2023-05-17T04:57:00.207Z,99909.74
2023-05-17T04:58:16.272Z,99912.05
2023-05-17T04:59:19.608Z,99915.18
2023-05-17T05:00:23.339Z,99906.96
2023-05-17T05:01:28.928Z,99910.95
2023-05-17T05:02:32.220Z,99920.20
2023-05-17T05:03:36.150Z,99914.81
2023-05-17T05:04:40.038Z,99916.59
2023-05-17T05:05:43.461Z,99921.85
2023-05-17T05:06:46.746Z,99927.73
2023-05-17T05:07:50.541Z,99923.95
2023-05-17T05:08:53.286Z,99917.61
2023-05-17T05:09:55.933Z,99918.44
2023-05-17T05:10:59.539Z,99928.52
2023-05-17T05:12:04.226Z,99926.62
2023-05-17T05:13:06.657Z,99928.83
2023-05-17T05:14:09.270Z,99921.17
2023-05-17T05:15:12.226Z,99927.66
2023-05-17T05:16:17.385Z,99927.21
2023-05-17T05:17:20.411Z,99926.59
2023-05-17T05:18:23.646Z,99920.47
2023-05-17T05:19:26.479Z,99927.66
2023-05-17T05:20:31.556Z,99934.16
2023-05-17T05:21:34.291Z,99929.38
2023-05-17T05:22:36.864Z,99927.23
2023-05-17T05:23:39.414Z,99927.23
2023-05-17T05:24:44.853Z,99924.39
2023-05-17T05:25:48.261Z,99930.48
2023-05-17T05:26:51.227Z,99929.66
2023-05-17T05:27:54.502Z,99929.05
2023-05-17T05:28:57.887Z,99931.31
2023-05-17T05:30:01.376Z,99932.05
2023-05-17T05:31:04.475Z,99929.80
2023-05-17T05:32:08.916Z,99925.61
2023-05-17T05:33:13.860Z,99929.80
2023-05-17T05:34:16.974Z,99931.48
2023-05-17T05:35:22.711Z,99932.10
2023-05-17T05:36:25.478Z,99933.14
2023-05-17T05:37:29.535Z,99931.85
2023-05-17T05:38:31.983Z,99933.89
2023-05-17T05:39:34.886Z,99939.29
2023-05-17T05:40:39.651Z,99937.87
2023-05-17T05:41:43.391Z,99934.64
2023-05-17T05:42:45.917Z,99945.34
2023-05-17T05:43:48.219Z,99941.50
2023-05-17T05:44:50.628Z,99946.08
2023-05-17T05:45:53.483Z,99944.39
2023-05-17T05:46:58.391Z,99944.39
2023-05-17T05:48:01.274Z,99940.81
2023-05-17T05:49:04.401Z,99953.00
2023-05-17T05:50:08.979Z,99956.17
2023-05-17T05:51:12.013Z,99955.22
2023-05-17T05:52:16.506Z,99952.59
2023-05-17T05:53:20.033Z,99949.57
2023-05-17T05:54:30.753Z,99953.31
2023-05-17T05:55:33.606Z,99951.49
2023-05-17T05:56:36.130Z,99956.88
2023-05-17T05:57:38.737Z,99955.92
2023-05-17T05:58:42.374Z,99957.84
2023-05-17T05:59:45.617Z,99962.53
2023-05-17T06:00:48.295Z,99951.84
2023-05-17T06:01:53.413Z,99961.81
2023-05-17T06:02:56.870Z,99956.16
2023-05-17T06:03:59.994Z,99955.23
2023-05-17T06:05:03.219Z,99951.02
2023-05-17T06:06:07.465Z,99947.30
2023-05-17T06:07:10.358Z,99953.27
2023-05-17T06:08:12.909Z,99953.87
2023-05-17T06:09:16.198Z,99957.83
2023-05-17T06:10:19.143Z,99960.92
2023-05-17T06:11:23.317Z,99960.92
2023-05-17T06:12:25.890Z,99953.04
2023-05-17T06:13:29.592Z,99948.45
2023-05-17T06:14:32.539Z,99948.41
2023-05-17T06:15:36.305Z,99960.19
2023-05-17T06:16:39.034Z,99952.73
2023-05-17T06:17:41.427Z,99950.59
2023-05-17T06:18:44.018Z,99952.94
2023-05-17T06:19:48.305Z,99959.64
2023-05-17T06:20:51.534Z,99949.66
2023-05-17T06:21:54.348Z,99951.61
2023-05-17T06:22:57.037Z,99955.98
2023-05-17T06:23:59.406Z,99957.28
2023-05-17T06:25:02.018Z,99961.23
2023-05-17T06:26:07.528Z,99959.55
2023-05-17T06:27:10.140Z,99958.45
2023-05-17T06:28:12.608Z,99961.37
2023-05-17T06:29:15.246Z,99960.72
2023-05-17T06:30:18.379Z,99965.73
2023-05-17T06:31:21.221Z,99963.36
2023-05-17T06:32:25.109Z,99963.53
2023-05-17T06:33:27.538Z,99965.98
2023-05-17T06:34:30.088Z,99960.30
2023-05-17T06:35:40.799Z,99964.25
2023-05-17T06:36:40.763Z,99966.24
2023-05-17T06:37:49.352Z,99966.45
2023-05-17T06:38:47.870Z,99964.97
2023-05-17T06:40:00.125Z,99963.25
2023-05-17T06:40:58.491Z,99964.45
2023-05-17T06:42:01.446Z,99962.67
2023-05-17T06:43:05.276Z,99962.91
2023-05-17T06:44:08.679Z,99966.66
2023-05-17T06:45:11.760Z,99964.73
2023-05-17T06:46:14.966Z,99969.61
2023-05-17T06:47:20.173Z,99967.30
2023-05-17T06:48:23.115Z,99964.21
2023-05-17T06:49:26.633Z,99966.14
2023-05-17T06:50:31.084Z,99969.61
2023-05-17T06:51:33.775Z,99969.61
2023-05-17T06:52:36.355Z,99965.69
2023-05-17T06:53:39.519Z,99966.14
2023-05-17T06:54:42.038Z,99962.67
2023-05-17T06:55:44.600Z,99969.81
2023-05-17T06:56:47.332Z,99975.03
2023-05-17T06:57:50.623Z,99972.25
2023-05-17T06:58:53.482Z,99966.41
2023-05-17T06:59:56.122Z,99966.14
2023-05-17T07:00:58.864Z,99970.26
2023-05-17T07:02:01.327Z,99971.11
2023-05-17T07:03:03.849Z,99967.17
2023-05-17T07:04:08.500Z,99968.13
2023-05-17T07:05:10.852Z,99969.22
2023-05-17T07:06:13.760Z,99969.22
2023-05-17T07:07:16.286Z,99970.91
2023-05-17T07:08:18.864Z,99955.70
2023-05-17T07:09:21.667Z,99955.70
2023-05-17T07:10:24.062Z,99965.17
2023-05-17T07:11:27.515Z,99965.38
2023-05-17T07:12:30.060Z,99967.05
2023-05-17T07:13:33.473Z,99966.64
2023-05-17T07:14:37.056Z,99968.24
2023-05-17T07:15:40.962Z,99963.64
2023-05-17T07:16:43.715Z,99964.41
2023-05-17T07:17:46.696Z,99965.52
2023-05-17T07:18:49.358Z,99971.15
2023-05-17T07:19:51.951Z,99961.72
2023-05-17T07:20:55.934Z,99963.40
2023-05-17T07:21:58.546Z,99965.75
2023-05-17T07:23:00.951Z,99963.33
2023-05-17T07:24:03.716Z,99963.33
2023-05-17T07:25:08.067Z,99960.14
2023-05-17T07:26:11.119Z,99961.28
2023-05-17T07:27:13.750Z,99966.83
2023-05-17T07:28:16.271Z,99961.00
2023-05-17T07:29:19.650Z,99969.94
2023-05-17T07:30:22.217Z,99968.14
2023-05-17T07:31:25.103Z,99965.00
2023-05-17T07:32:27.571Z,99970.70
2023-05-17T07:33:30.486Z,99970.30
2023-05-17T07:34:33.028Z,99961.81
2023-05-17T07:35:37.809Z,99968.64
2023-05-17T07:36:40.325Z,99965.59
2023-05-17T07:37:42.858Z,99968.80
2023-05-17T07:38:45.488Z,99971.19
2023-05-17T07:39:49.256Z,99970.64
2023-05-17T07:40:52.425Z,99969.52
2023-05-17T07:41:55.655Z,99970.34
2023-05-17T07:42:58.282Z,99970.91
2023-05-17T07:44:00.869Z,99978.75
2023-05-17T07:45:03.821Z,99964.52
2023-05-17T07:46:06.708Z,99971.21
2023-05-17T07:47:09.377Z,99970.91
2023-05-17T07:48:11.934Z,99962.30
2023-05-17T07:49:16.479Z,99962.30
2023-05-17T07:50:19.135Z,99975.96
2023-05-17T07:51:21.407Z,99967.88
2023-05-17T07:52:23.934Z,99972.61
2023-05-17T07:53:26.409Z,99972.05
2023-05-17T07:54:29.311Z,99974.69
2023-05-17T07:55:32.260Z,99975.08
2023-05-17T07:56:36.134Z,99980.95
2023-05-17T07:57:38.841Z,99977.33
2023-05-17T07:58:42.217Z,99977.16
2023-05-17T07:59:45.091Z,99979.35
2023-05-17T08:00:49.099Z,99988.10
2023-05-17T08:01:52.142Z,99980.55
2023-05-17T08:02:57.191Z,99977.70
2023-05-17T08:03:59.893Z,99978.52
2023-05-17T08:05:02.732Z,99981.64
2023-05-17T08:06:05.482Z,99981.33
2023-05-17T08:07:08.024Z,99981.59
2023-05-17T08:08:10.580Z,99980.41
2023-05-17T08:09:13.165Z,99980.41
2023-05-17T08:10:16.152Z,99985.87
2023-05-17T08:11:19.706Z,99984.36
2023-05-17T08:12:23.228Z,99979.33
2023-05-17T08:13:29.346Z,99984.84
2023-05-17T08:14:31.766Z,99990.15
2023-05-17T08:15:34.241Z,99981.38
2023-05-17T08:16:37.145Z,99985.95
2023-05-17T08:17:40.100Z,99985.38
2023-05-17T08:18:43.849Z,99982.73
2023-05-17T08:19:47.806Z,99984.92
2023-05-17T08:20:50.833Z,99986.20
2023-05-17T08:21:55.482Z,99983.27
2023-05-17T08:22:58.017Z,99982.96
2023-05-17T08:24:02.157Z,99988.66
2023-05-17T08:25:06.570Z,99985.23
2023-05-17T08:26:09.496Z,99981.77
2023-05-17T08:27:12.138Z,99979.92
2023-05-17T08:28:14.978Z,99981.55
2023-05-17T08:29:17.302Z,99983.45
2023-05-17T08:30:28.975Z,99986.48
2023-05-17T08:31:24.552Z,99989.56
2023-05-17T08:32:29.935Z,99988.16
2023-05-17T08:33:32.841Z,99986.59
2023-05-17T08:34:36.213Z,99982.34
2023-05-17T08:35:38.820Z,99981.97
2023-05-17T08:36:42.308Z,99987.13
2023-05-17T08:37:45.636Z,99981.97
2023-05-17T08:38:49.305Z,99983.05
2023-05-17T08:39:52.108Z,99978.11
2023-05-17T08:40:55.064Z,99967.93
2023-05-17T08:41:59.017Z,99967.93
2023-05-17T08:43:02.722Z,99984.08
2023-05-17T08:44:05.866Z,99987.27
2023-05-17T08:45:10.118Z,99982.41
2023-05-17T08:46:15.434Z,99981.58
2023-05-17T08:47:28.065Z,99987.11
2023-05-17T08:48:31.678Z,99987.27
2023-05-17T08:49:37.896Z,99984.83
2023-05-17T08:50:41.151Z,99978.61
2023-05-17T08:51:46.883Z,99984.30
2023-05-17T08:52:49.788Z,99985.14
2023-05-17T08:53:52.835Z,99984.00
2023-05-17T08:54:55.815Z,99986.88
2023-05-17T08:56:00.974Z,99980.89
2023-05-17T08:57:06.781Z,99983.84
2023-05-17T08:58:11.743Z,99988.54
2023-05-17T08:59:15.094Z,99988.78
2023-05-17T09:00:21.331Z,99986.34
2023-05-17T09:01:25.997Z,99981.11
2023-05-17T09:02:31.016Z,99986.13
2023-05-17T09:03:35.288Z,99989.53
2023-05-17T09:04:38.979Z,99981.02
2023-05-17T09:05:43.251Z,99987.11
2023-05-17T09:06:46.584Z,99986.95
2023-05-17T09:07:49.325Z,99981.64
2023-05-17T09:08:54.038Z,99987.41
2023-05-17T09:09:57.952Z,99987.81
2023-05-17T09:11:00.514Z,99991.28
2023-05-17T09:12:03.958Z,99977.06
2023-05-17T09:13:07.116Z,99989.52
2023-05-17T09:14:10.174Z,99984.72
2023-05-17T09:15:16.716Z,99983.47
2023-05-17T09:16:21.381Z,99992.86
2023-05-17T09:17:24.472Z,99988.20
2023-05-17T09:18:32.923Z,99987.74
2023-05-17T09:19:39.302Z,99983.38
2023-05-17T09:20:42.202Z,99988.91
2023-05-17T09:21:48.525Z,99975.03
2023-05-17T09:22:52.936Z,99975.03
2023-05-17T09:24:05.306Z,99981.44
2023-05-17T09:25:02.496Z,99982.59
2023-05-17T09:26:08.258Z,99986.09
2023-05-17T09:27:20.052Z,99991.42
2023-05-17T09:28:23.106Z,99995.00
2023-05-17T09:29:26.657Z,99988.20
2023-05-17T09:30:32.817Z,99996.77
2023-05-17T09:31:35.651Z,99994.99
2023-05-17T09:32:44.365Z,100001.62
2023-05-17T09:33:49.599Z,99996.80
2023-05-17T09:34:52.202Z,99997.03
2023-05-17T09:35:55.476Z,99994.73
2023-05-17T09:36:58.135Z,99994.21
2023-05-17T09:38:08.910Z,99993.91
2023-05-17T09:39:14.237Z,99995.98
2023-05-17T09:40:26.376Z,99999.69
2023-05-17T09:41:44.988Z,99995.06
2023-05-17T09:42:49.309Z,99996.12
2023-05-17T09:43:52.113Z,99995.59
2023-05-17T09:44:57.586Z,100001.27
2023-05-17T09:46:00.096Z,99990.16
2023-05-17T09:47:03.668Z,99990.34
2023-05-17T09:48:17.184Z,99992.55
2023-05-17T09:49:19.745Z,99997.17
2023-05-17T09:50:25.379Z,100000.01
2023-05-17T09:51:35.354Z,99991.03
2023-05-17T09:52:40.571Z,99993.06
2023-05-17T09:53:43.155Z,99982.77
2023-05-17T09:54:55.236Z,99984.39
2023-05-17T09:56:03.726Z,99988.42
2023-05-17T09:57:08.433Z,99986.06
2023-05-17T09:58:11.597Z,99985.08
2023-05-17T09:59:15.577Z,99986.34
2023-05-17T10:00:21.516Z,99979.34
2023-05-17T10:01:27.355Z,99979.88
2023-05-17T10:02:35.438Z,99984.97
2023-05-17T10:03:39.652Z,99981.02
2023-05-17T10:04:44.590Z,99983.81
2023-05-17T10:05:50.939Z,99979.70
2023-05-17T10:06:54.429Z,99980.17
2023-05-17T10:07:57.143Z,99983.00
2023-05-17T10:09:02.010Z,99984.55
2023-05-17T10:10:06.629Z,99982.42
2023-05-17T10:11:10.873Z,99981.16
2023-05-17T10:12:23.709Z,99978.72
2023-05-17T10:13:30.140Z,99978.99
2023-05-17T10:14:35.398Z,99982.89
2023-05-17T10:15:39.904Z,99981.78
2023-05-17T10:16:43.150Z,99981.48
2023-05-17T10:17:46.011Z,99985.48
2023-05-17T10:18:49.694Z,99981.14
2023-05-17T10:19:53.259Z,99987.45
2023-05-17T10:20:57.794Z,99977.09
2023-05-17T10:22:11.506Z,99981.83
2023-05-17T10:23:07.623Z,99986.81
2023-05-17T10:24:11.797Z,99984.48
2023-05-17T10:25:15.075Z,99977.84
2023-05-17T10:26:18.458Z,99977.72
2023-05-17T10:27:22.492Z,99976.25
2023-05-17T10:28:26.803Z,99980.55
2023-05-17T10:29:34.211Z,99981.30
2023-05-17T10:30:39.301Z,99976.83
2023-05-17T10:31:45.898Z,99980.18
2023-05-17T10:32:51.386Z,99973.55
2023-05-17T10:33:54.612Z,99981.03
2023-05-17T10:35:10.351Z,99976.23
2023-05-17T10:36:07.970Z,99978.09
2023-05-17T10:37:13.574Z,99973.44
2023-05-17T10:38:17.688Z,99980.13
2023-05-17T10:39:22.875Z,99973.78
2023-05-17T10:40:25.389Z,99976.43
2023-05-17T10:41:31.695Z,99976.43
2023-05-17T10:42:36.015Z,99977.41
2023-05-17T10:43:41.288Z,99979.89
2023-05-17T10:44:44.032Z,99980.06
2023-05-17T10:45:46.601Z,99981.71
2023-05-17T10:46:54.825Z,99984.72
2023-05-17T10:48:01.285Z,99977.06
2023-05-17T10:49:04.040Z,99979.73
2023-05-17T10:50:15.770Z,99980.01
2023-05-17T10:51:26.835Z,99982.50
2023-05-17T10:52:30.598Z,99973.69
2023-05-17T10:53:33.322Z,99974.72
2023-05-17T10:54:38.699Z,99981.69
2023-05-17T10:55:44.230Z,99979.67
2023-05-17T10:56:53.676Z,99974.34
2023-05-17T10:58:12.877Z,99977.34
2023-05-17T10:59:24.686Z,99978.34
2023-05-17T11:00:29.983Z,99972.80
2023-05-17T11:02:04.198Z,99978.47
2023-05-17T11:03:21.226Z,99969.25
2023-05-17T11:04:35.683Z,99973.48
2023-05-17T11:05:43.024Z,99971.54
2023-05-17T11:06:45.757Z,99972.39
2023-05-17T11:07:48.308Z,99976.72
2023-05-17T11:09:08.988Z,99968.56
2023-05-17T11:10:13.410Z,99977.06
2023-05-17T11:11:20.616Z,99973.41
2023-05-17T11:12:41.260Z,99970.58
2023-05-17T11:13:55.730Z,99976.38
2023-05-17T11:14:58.624Z,99973.03
2023-05-17T11:16:07.956Z,99979.67
2023-05-17T11:17:17.560Z,99975.70
2023-05-17T11:18:30.491Z,99983.36
2023-05-17T11:19:25.953Z,99974.00
2023-05-17T11:20:32.272Z,99976.63
2023-05-17T11:21:35.463Z,99981.31
2023-05-17T11:23:57.014Z,99971.39
2023-05-17T11:25:01.515Z,99975.33
2023-05-17T11:26:25.946Z,99972.36
2023-05-17T11:27:32.927Z,99979.67
2023-05-17T11:28:37.945Z,99965.36
2023-05-17T11:29:41.862Z,99966.72
2023-05-17T11:30:46.754Z,99969.36
2023-05-17T11:31:51.577Z,99975.19
2023-05-17T11:33:03.024Z,99967.34
2023-05-17T11:34:07.308Z,99976.87
2023-05-17T11:35:12.678Z,99975.36
2023-05-17T11:36:18.937Z,99974.34
2023-05-17T11:37:29.121Z,99968.70
2023-05-17T11:38:32.298Z,99968.53
2023-05-17T11:39:35.032Z,99972.41
2023-05-17T11:40:38.812Z,99969.26
2023-05-17T11:41:51.030Z,99963.61
2023-05-17T11:43:13.573Z,99965.42
2023-05-17T11:47:07.093Z,99967.16
2023-05-17T11:48:13.625Z,99969.16
2023-05-17T11:49:26.989Z,99962.47
2023-05-17T11:51:44.841Z,99967.48
2023-05-17T11:52:48.034Z,99960.83
2023-05-17T11:53:51.339Z,99967.66
2023-05-17T11:54:56.274Z,99969.97
2023-05-17T11:56:02.515Z,99964.49
2023-05-17T11:57:06.562Z,99967.16
2023-05-17T11:58:14.549Z,99967.47
2023-05-17T11:59:20.985Z,99967.46
2023-05-17T12:00:28.385Z,99961.98
2023-05-17T12:01:45.525Z,99963.65
2023-05-17T12:02:47.998Z,99962.11
2023-05-17T12:03:55.965Z,99958.42
2023-05-17T12:04:59.113Z,99966.27
2023-05-17T12:06:07.547Z,99962.62
2023-05-17T12:07:11.484Z,99965.45
2023-05-17T12:08:18.064Z,99958.48
2023-05-17T12:09:22.491Z,99959.16
2023-05-17T12:10:25.426Z,99956.48
2023-05-17T12:11:28.613Z,99958.80
2023-05-17T12:12:33.071Z,99956.15
2023-05-17T12:13:35.558Z,99958.77
2023-05-17T12:14:37.927Z,99957.13
2023-05-17T12:15:42.824Z,99956.80
2023-05-17T12:16:48.847Z,99954.95
2023-05-17T12:17:53.370Z,99953.65
2023-05-17T12:18:57.822Z,99952.80
2023-05-17T12:20:09.088Z,99949.63
2023-05-17T12:21:14.323Z,99948.30
2023-05-17T12:22:17.142Z,99948.13
2023-05-17T12:23:26.411Z,99949.14
2023-05-17T12:24:32.301Z,99947.14
2023-05-17T12:25:34.693Z,99941.28
2023-05-17T12:26:45.427Z,99945.11
2023-05-17T12:27:47.861Z,99942.45
2023-05-17T12:28:55.983Z,99948.78
2023-05-17T12:29:59.346Z,99943.11
2023-05-17T12:31:03.348Z,99946.27
2023-05-17T12:32:09.106Z,99934.11
2023-05-17T12:33:12.120Z,99936.59
2023-05-17T12:34:16.331Z,99931.75
2023-05-17T12:35:18.829Z,99934.09
2023-05-17T12:36:22.084Z,99933.80
2023-05-17T12:37:24.321Z,99929.41
2023-05-17T12:38:32.346Z,99928.91
2023-05-17T12:39:35.159Z,99930.75
2023-05-17T12:40:43.272Z,99926.39
2023-05-17T12:41:46.955Z,99930.55
2023-05-17T12:42:49.265Z,99935.02
2023-05-17T12:43:55.002Z,99927.72
2023-05-17T12:44:56.200Z,99927.22
2023-05-17T12:46:10.997Z,99932.41